• Join FlightAware (Why Join?)
  • Login
  • US Flag 
07:40PM EDT


 

Airport Tracker/Info


-or-


 

Live Flight TrackerFlight Track Log ✈ GLO1679 ✈ 23-Sep-2013 ✈ SBTE / THE - SBGR / GRU

Flight Track Log - Related Links

Times and Time Zones

All times are in EDT time to prevent confusion due to time zone crossing. See the GLO1679 flight status page for this flight to view local times or setup timezone preferences in your user account.

Time Position Orientation Groundspeed Altitude Reporting Facility
EDT Latitude Longitude Course Direction KTS MPH feet Rate Location/Type
02:58AM -5.0660 -42.8230 180° South 76 87  Level FlightAware
02:58AM -5.0560 -42.8240 354° North 150 173 1,740 Level FlightAware
02:59AM -5.0370 -42.8260 354° North 160 184 1,300 3,060 Climbing FlightAware
02:59AM -5.0310 -42.8280 342° North 161 185 1,600 1,980 Climbing FlightAware
02:59AM -5.0280 -42.8290 342° North 166 191 1,700 960 Climbing FlightAware
02:59AM -5.0240 -42.8340 309° West 185 213 1,800 360 Climbing FlightAware
02:59AM -5.0210 -42.8410 293° West 206 237 1,800 480 Level FlightAware
02:59AM -5.0210 -42.8450 270° West 215 247 1,900 1,500 Climbing FlightAware
03:00AM -5.0320 -42.8680 244° Southwest 241 277 2,500 1,800 Climbing FlightAware
03:00AM -5.0400 -42.8730 212° Southwest 240 276 2,900 2,280 Climbing FlightAware
03:00AM -5.0440 -42.8740 194° South 237 273 3,000 2,640 Climbing FlightAware
03:00AM -5.0500 -42.8750 189° South 233 268 3,300 3,060 Climbing FlightAware
03:00AM -5.0720 -42.8720 172° South 222 255 4,400 2,280 Climbing FlightAware
03:01AM -5.0900 -42.8680 168° South 244 281 4,800 1,620 Climbing FlightAware
03:01AM -5.1130 -42.8640 170° South 260 299 5,400 2,160 Climbing FlightAware
03:01AM -5.1310 -42.8620 174° South 266 306 6,000 2,580 Climbing FlightAware
03:02AM -5.1580 -42.8670 190° South 278 320 7,000 2,700 Climbing FlightAware
03:02AM -5.1830 -42.8780 204° Southwest 279 321 8,000 2,580 Climbing FlightAware
03:02AM -5.2060 -42.8880 203° Southwest 289 333 8,700 2,400 Climbing FlightAware
03:03AM -5.2310 -42.9010 207° Southwest 294 338 9,600 1,920 Climbing FlightAware
03:03AM -5.2780 -42.9230 205° Southwest 321 369 10,600 1,380 Climbing FlightAware
03:04AM -5.3270 -42.9460 205° Southwest 354 407 11,300 2,100 Climbing FlightAware
03:04AM -5.3800 -42.9710 205° Southwest 353 406 13,100 2,460 Climbing FlightAware
03:05AM -5.4320 -42.9960 206° Southwest 374 430 14,200 1,980 Climbing FlightAware
03:06AM -5.4940 -43.0240 204° Southwest 395 455 15,500 2,100 Climbing FlightAware
03:06AM -5.5520 -43.0490 203° Southwest 404 465 16,700 2,400 Climbing FlightAware
03:07AM -5.6050 -43.0580 190° South 403 464 18,000 2,640 Climbing FlightAware
03:07AM -5.6680 -43.0640 185° South 398 458 19,500 2,220 Climbing FlightAware
03:08AM -5.7280 -43.0700 186° South 407 468 20,500 1,620 Climbing FlightAware
03:08AM -5.7970 -43.0770 186° South 419 482 21,400 1,680 Climbing FlightAware
03:09AM -5.8680 -43.0840 186° South 423 487 22,600 1,920 Climbing FlightAware
03:10AM -5.9390 -43.0910 186° South 424 488 23,800 1,800 Climbing FlightAware
03:10AM -6.0030 -43.0980 186° South 430 495 24,700 1,560 Climbing FlightAware
03:11AM -6.1040 -43.1080 186° South 439 505 26,000 1,440 Climbing FlightAware
03:11AM -6.1700 -43.1150 186° South 448 516 26,700 1,200 Climbing FlightAware
03:12AM -6.2420 -43.1220 186° South 458 527 27,400 1,140 Climbing FlightAware
03:13AM -6.3250 -43.1300 185° South 468 539 28,100 1,140 Climbing FlightAware
03:13AM -6.4040 -43.1380 186° South 477 549 28,800 1,020 Climbing FlightAware
03:14AM -6.4730 -43.1450 186° South 484 557 29,300 1,020 Climbing FlightAware
03:14AM -6.5560 -43.1530 185° South 490 564 30,000 1,440 Climbing FlightAware
03:15AM -6.6280 -43.1610 186° South 485 558 31,000 1,740 Climbing FlightAware
03:16AM -6.7100 -43.1690 186° South 480 552 32,000 1,620 Climbing FlightAware
03:16AM -6.7920 -43.1770 186° South 480 552 33,000 1,620 Climbing FlightAware
03:17AM -6.8630 -43.1850 186° South 473 544 33,900 1,620 Climbing FlightAware
03:17AM -6.9410 -43.1930 186° South 468 539 34,900 1,260 Climbing FlightAware
03:18AM -7.0020 -43.1990 186° South 472 543 35,300 840 Climbing FlightAware
03:18AM -7.0780 -43.2070 186° South 476 548 35,800 660 Climbing FlightAware
03:19AM -7.1890 -43.2170 185° South 475 547 36,300 300 Climbing FlightAware
03:20AM -7.2560 -43.2230 185° South 475 547 36,300  Level FlightAware
03:20AM -7.3230 -43.2290 185° South 475 547 36,300 1,260 Level FlightAware
03:21AM -7.4460 -43.2440 187° South 462 532 38,000 1,260 Climbing FlightAware
03:22AM -7.5240 -43.2520 186° South 461 531 38,000  Level FlightAware
03:22AM -7.5920 -43.2580 185° South 461 531 38,000  Level FlightAware
03:23AM -7.6540 -43.2630 185° South 461 531 38,000  Level FlightAware
03:24AM -7.7190 -43.2690 185° South 461 531 38,000  Level FlightAware
03:24AM -7.7840 -43.2750 185° South 461 531 38,000  Level FlightAware
03:25AM -7.8500 -43.2810 185° South 461 531 38,000  Level FlightAware
03:25AM -7.9150 -43.2860 184° South 461 531 38,000  Level FlightAware
03:26AM -7.9800 -43.2920 185° South 461 531 38,000  Level FlightAware
03:27AM -8.0450 -43.2980 185° South 461 531 38,000  Level FlightAware
03:27AM -8.1100 -43.3040 185° South 461 531 38,000  Level FlightAware
03:28AM -8.1760 -43.3090 184° South 461 531 38,000  Level FlightAware
03:28AM -8.2410 -43.3150 185° South 461 531 38,000  Level FlightAware
03:29AM -8.3060 -43.3210 185° South 461 531 38,000  Level FlightAware
03:30AM -8.3710 -43.3270 185° South 461 531 38,000  Level FlightAware
03:30AM -8.4360 -43.3320 184° South 461 531 38,000  Level FlightAware
03:31AM -8.5020 -43.3380 185° South 461 531 38,000  Level FlightAware
03:32AM -8.7400 -43.3760 189° South 444 511 38,000  Level FlightAware
03:32AM -8.8100 -43.3820 185° South 444 511 38,000  Level FlightAware
03:33AM -8.8720 -43.3880 185° South 444 511 38,000  Level FlightAware
03:33AM -8.9350 -43.3930 184° South 444 511 38,000  Level FlightAware
03:34AM -8.9970 -43.3990 185° South 444 511 38,000  Level FlightAware
03:35AM -9.0600 -43.4040 184° South 444 511 38,000  Level FlightAware
03:35AM -9.1230 -43.4100 185° South 444 511 38,000  Level FlightAware
03:36AM -9.1850 -43.4150 185° South 444 511 38,000  Level FlightAware
03:36AM -9.2480 -43.4210 185° South 444 511 38,000  Level FlightAware
03:37AM -9.3120 -43.4270 185° South 444 511 38,000  Level FlightAware
03:38AM -9.3770 -43.4320 184° South 444 511 38,000  Level FlightAware
03:38AM -9.4390 -43.4380 185° South 444 511 38,000  Level FlightAware
03:39AM -9.5020 -43.4430 184° South 444 511 38,000  Level FlightAware
03:39AM -9.5640 -43.4490 185° South 444 511 38,000  Level FlightAware
03:40AM -9.6270 -43.4540 184° South 444 511 38,000  Level FlightAware
03:41AM -9.6900 -43.4600 185° South 444 511 38,000  Level FlightAware
03:41AM -9.7520 -43.4660 185° South 444 511 38,000  Level FlightAware
03:44AM -9.9812 -43.5133 191° South  Level Estimated
03:45AM -10.0830 -43.5343 191° South  Level Estimated
03:46AM -10.1849 -43.5553 191° South  Level Estimated
03:47AM -10.2867 -43.5764 191° South  Level Estimated
03:48AM -10.3886 -43.5975 191° South  Level Estimated
03:49AM -10.4904 -43.6185 192° South  Level Estimated
03:50AM -10.5923 -43.6396 192° South  Level Estimated
03:51AM -10.6941 -43.6607 192° South  Level Estimated
03:52AM -10.7959 -43.6819 192° South  Level Estimated
03:53AM -10.8978 -43.7030 192° South  Level Estimated
03:54AM -10.9996 -43.7241 192° South  Level Estimated
03:55AM -11.1015 -43.7453 192° South  Level Estimated
03:56AM -11.2033 -43.7665 192° South  Level Estimated
03:57AM -11.3051 -43.7877 192° South  Level Estimated
03:58AM -11.4070 -43.8089 192° South  Level Estimated
03:59AM -11.5088 -43.8301 192° South  Level Estimated
04:00AM -11.6106 -43.8514 192° South  Level Estimated
04:01AM -11.7125 -43.8726 192° South  Level Estimated
04:02AM -11.8143 -43.8939 192° South  Level Estimated
04:03AM -11.9161 -43.9152 192° South  Level Estimated
04:04AM -12.0179 -43.9365 192° South  Level Estimated
04:05AM -12.1198 -43.9578 192° South  Level Estimated
04:06AM -12.2216 -43.9791 192° South  Level Estimated
04:07AM -12.3234 -44.0005 192° South  Level Estimated
04:08AM -12.4252 -44.0219 192° South  Level Estimated
04:09AM -12.5270 -44.0433 192° South  Level Estimated
04:10AM -12.6288 -44.0647 192° South  Level Estimated
04:11AM -12.7306 -44.0861 192° South  Level Estimated
04:12AM -12.8325 -44.1075 192° South  Level Estimated
04:13AM -12.9343 -44.1290 192° South  Level Estimated
04:14AM -13.0361 -44.1504 192° South  Level Estimated
04:15AM -13.1379 -44.1719 192° South  Level Estimated
04:16AM -13.2397 -44.1934 192° South  Level Estimated
04:17AM -13.3415 -44.2150 192° South  Level Estimated
04:18AM -13.4433 -44.2365 192° South  Level Estimated
04:19AM -13.5451 -44.2581 192° South  Level Estimated
04:20AM -13.6469 -44.2796 192° South  Level Estimated
04:21AM -13.7487 -44.3012 192° South  Level Estimated
04:22AM -13.8505 -44.3229 192° South  Level Estimated
04:23AM -13.9523 -44.3445 192° South  Level Estimated
04:24AM -14.0541 -44.3662 192° South  Level Estimated
04:25AM -14.1558 -44.3878 192° South  Level Estimated
04:26AM -14.2576 -44.4095 192° South  Level Estimated
04:26AM -15.2530 -44.0550 192° South 422 486 38,000  Level FlightAware
04:27AM -15.3280 -44.0630 186° South 423 487 38,000  Level FlightAware
04:28AM -15.4020 -44.0710 186° South 424 488 38,000  Level FlightAware
04:28AM -15.4660 -44.0780 186° South 424 488 38,000  Level FlightAware
04:29AM -15.5260 -44.0850 186° South 424 488 38,000  Level FlightAware
04:29AM -15.5860 -44.0910 186° South 424 488 38,000  Level FlightAware
04:30AM -15.6910 -44.0950 182° South 424 488 38,000  Level FlightAware
04:30AM -15.7430 -44.1100 196° South 426 490 38,000  Level FlightAware
04:31AM -15.8020 -44.1390 205° Southwest 428 493 38,000  Level FlightAware
04:32AM -15.8740 -44.1750 206° Southwest 426 490 38,000  Level FlightAware
04:32AM -15.9300 -44.2030 206° Southwest 426 490 38,000  Level FlightAware
04:33AM -15.9910 -44.2330 205° Southwest 425 489 38,000  Level FlightAware
04:33AM -16.0550 -44.2650 206° Southwest 424 488 38,000  Level FlightAware
04:34AM -16.1110 -44.2930 206° Southwest 423 487 38,000  Level FlightAware
04:35AM -16.1880 -44.3320 206° Southwest 423 487 38,000  Level FlightAware
04:35AM -16.2390 -44.3580 206° Southwest 423 487 38,000  Level FlightAware
04:36AM -16.3020 -44.3890 205° Southwest 422 486 38,000  Level FlightAware
04:36AM -16.3540 -44.4150 206° Southwest 422 486 38,000  Level FlightAware
04:37AM -16.4170 -44.4470 206° Southwest 422 486 38,000  Level FlightAware
04:37AM -16.4780 -44.4770 205° Southwest 422 486 38,000  Level FlightAware
04:38AM -16.5490 -44.5130 206° Southwest 422 486 38,000  Level FlightAware
04:39AM -16.6020 -44.5400 206° Southwest 422 486 38,000  Level FlightAware
04:39AM -16.6630 -44.5700 205° Southwest 422 486 38,000  Level FlightAware
04:40AM -16.7250 -44.6010 206° Southwest 423 487 38,000  Level FlightAware
04:40AM -16.7860 -44.6320 206° Southwest 424 488 38,000  Level FlightAware
04:41AM -16.8480 -44.6640 206° Southwest 425 489 38,000  Level FlightAware
04:42AM -16.9170 -44.6990 206° Southwest 427 491 38,000  Level FlightAware
04:42AM -16.9730 -44.7270 206° Southwest 427 491 38,000  Level FlightAware
04:43AM -17.0370 -44.7590 206° Southwest 426 490 38,000  Level FlightAware
04:43AM -17.1080 -44.7950 206° Southwest 425 489 38,000  Level FlightAware
04:44AM -17.1610 -44.8220 206° Southwest 424 488 38,000  Level FlightAware
04:44AM -17.2230 -44.8530 206° Southwest 424 488 38,000  Level FlightAware
04:45AM -17.2850 -44.8840 206° Southwest 424 488 38,000  Level FlightAware
04:46AM -17.3460 -44.9160 207° Southwest 423 487 38,000  Level FlightAware
04:46AM -17.4080 -44.9470 206° Southwest 422 486 38,000  Level FlightAware
04:47AM -17.4680 -44.9780 206° Southwest 422 486 38,000  Level FlightAware
04:47AM -17.5320 -45.0100 205° Southwest 421 484 38,000  Level FlightAware
04:48AM -17.6010 -45.0450 206° Southwest 423 487 38,000  Level FlightAware
04:48AM -17.6540 -45.0720 206° Southwest 423 487 38,000  Level FlightAware
04:49AM -17.7170 -45.1040 206° Southwest 424 488 38,000  Level FlightAware
04:50AM -17.7790 -45.1360 206° Southwest 425 489 38,000  Level FlightAware
04:50AM -17.8490 -45.1720 206° Southwest 426 490 38,000  Level FlightAware
04:51AM -17.9120 -45.2040 206° Southwest 426 490 38,000  Level FlightAware
04:51AM -17.9660 -45.2320 206° Southwest 427 491 38,000  Level FlightAware
04:52AM -18.0360 -45.2670 205° Southwest 427 491 38,000  Level FlightAware
04:53AM -18.0990 -45.3000 206° Southwest 428 493 38,000  Level FlightAware
04:53AM -18.1510 -45.3260 205° Southwest 430 495 38,000  Level FlightAware
04:54AM -18.2240 -45.3640 206° Southwest 430 495 38,000  Level FlightAware
04:54AM -18.2870 -45.3960 206° Southwest 430 495 38,000  Level FlightAware
04:55AM -18.3400 -45.4230 206° Southwest 431 496 38,000  Level FlightAware
04:55AM -18.4040 -45.4560 206° Southwest 431 496 38,000  Level FlightAware
04:56AM -18.4760 -45.4930 206° Southwest 432 497 38,000  Level FlightAware
04:57AM -18.5380 -45.5250 206° Southwest 431 496 38,000  Level FlightAware
04:57AM -18.5900 -45.5520 206° Southwest 431 496 38,000  Level FlightAware
04:58AM -18.6550 -45.5860 206° Southwest 432 497 38,000  Level FlightAware
04:58AM -18.7180 -45.6180 206° Southwest 431 496 38,000  Level FlightAware
04:59AM -18.7900 -45.6550 206° Southwest 430 495 38,000  Level FlightAware
05:00AM -18.8520 -45.6870 206° Southwest 429 494 38,000  Level FlightAware
05:00AM -18.9060 -45.7150 206° Southwest 428 493 38,000  Level FlightAware
05:01AM -18.9690 -45.7480 206° Southwest 429 494 38,000  Level FlightAware
05:01AM -19.0400 -45.7840 206° Southwest 429 494 38,000  Level FlightAware
05:02AM -19.1030 -45.8180 207° Southwest 429 494 38,000  Level FlightAware
05:02AM -19.1570 -45.8460 206° Southwest 429 494 38,000  Level FlightAware
05:03AM -19.2270 -45.8820 206° Southwest 430 495 38,000  Level FlightAware
05:04AM -19.2910 -45.9150 206° Southwest 430 495 38,000  Level FlightAware
05:04AM -19.3450 -45.9430 206° Southwest 430 495 38,000  Level FlightAware
05:05AM -19.4060 -45.9750 206° Southwest 431 496 38,000  Level FlightAware
05:05AM -19.4790 -46.0130 206° Southwest 432 497 38,000  Level FlightAware
05:06AM -19.5430 -46.0460 206° Southwest 433 498 38,000  Level FlightAware
05:07AM -19.5960 -46.0740 206° Southwest 434 499 38,000  Level FlightAware
05:07AM -19.6680 -46.1120 206° Southwest 436 502 38,000  Level FlightAware
05:08AM -19.7230 -46.1410 206° Southwest 437 503 38,000  Level FlightAware
05:08AM -19.7960 -46.1790 206° Southwest 437 503 38,000  Level FlightAware
05:09AM -19.8510 -46.2080 206° Southwest 437 503 38,000  Level FlightAware
05:09AM -19.9140 -46.2410 206° Southwest 437 503 38,000  Level FlightAware
05:10AM -19.9900 -46.2740 202° Southwest 438 504 38,000  Level FlightAware
05:11AM -20.0480 -46.2900 195° South 437 503 38,000  Level FlightAware
05:12AM -20.1500 -46.3200 195° South 436 502 38,000  Level FlightAware
05:12AM -20.2170 -46.3390 195° South 435 501 38,000  Level FlightAware
05:13AM -20.2880 -46.3590 195° South 434 499 38,000  Level FlightAware
05:13AM -20.3520 -46.3770 195° South 434 499 38,000  Level FlightAware
05:14AM -20.4160 -46.3960 196° South 434 499 38,000  Level FlightAware
05:14AM -20.4920 -46.4180 195° South 434 499 38,000  Level FlightAware
05:15AM -20.5620 -46.4380 195° South 434 499 38,000  Level FlightAware
05:16AM -20.6280 -46.4570 195° South 434 499 38,000  Level FlightAware
05:16AM -20.7010 -46.4780 195° South 433 498 38,000  Level FlightAware
05:17AM -20.7570 -46.4940 195° South 433 498 38,000  Level FlightAware
05:17AM -20.8240 -46.5130 195° South 433 498 38,000  Level FlightAware
05:18AM -20.9010 -46.5350 195° South 433 498 38,000  Level FlightAware
05:19AM -20.9710 -46.5560 196° South 433 498 38,000  Level FlightAware
05:19AM -21.0360 -46.5740 194° South 432 497 38,000  Level FlightAware
05:20AM -21.1050 -46.5940 195° South 431 496 38,000  Level FlightAware
05:20AM -21.1670 -46.6120 195° South 431 496 38,000  Level FlightAware
05:21AM -21.2410 -46.6340 195° South 431 496 38,000  Level FlightAware
05:21AM -21.3030 -46.6520 195° South 431 496 38,000  Level FlightAware
05:22AM -21.3720 -46.6720 195° South 432 497 38,000  Level FlightAware
05:23AM -21.4430 -46.6930 195° South 432 497 38,000  Level FlightAware
05:23AM -21.5050 -46.7110 195° South 433 498 38,000  Level FlightAware
05:24AM -21.5770 -46.7320 195° South 435 501 38,000  Level FlightAware
05:24AM -21.6450 -46.7520 195° South 437 503 38,000  Level FlightAware
05:25AM -21.7190 -46.7730 195° South 438 504 38,000 -360 Level FlightAware
05:26AM -21.7800 -46.7910 195° South 436 502 37,600 -1,800 Descending FlightAware
05:26AM -21.8480 -46.8110 195° South 436 502 36,000 -2,940 Descending FlightAware
05:27AM -21.9160 -46.8380 200° South 441 507 34,200 -3,300 Descending FlightAware
05:27AM -21.9850 -46.8650 200° South 449 517 32,100 -3,480 Descending FlightAware
05:28AM -22.0490 -46.8900 200° South 452 520 30,300 -3,240 Descending FlightAware
05:28AM -22.1180 -46.9170 200° South 443 510 28,400 -2,220 Descending FlightAware
05:29AM -22.1860 -46.9440 200° South 414 476 27,700 -1,440 Descending FlightAware
05:30AM -22.2500 -46.9690 200° South 409 471 26,700 -1,920 Descending FlightAware
05:30AM -22.3130 -46.9940 200° South 396 456 25,500 -2,640 Descending FlightAware
05:31AM -22.3670 -47.0050 191° South 418 481 23,900 -2,640 Descending FlightAware
05:31AM -22.4280 -47.0020 177° South 421 484 22,900 -2,040 Descending FlightAware
05:32AM -22.4950 -46.9980 177° South 413 475 21,700 -2,040 Descending FlightAware
05:32AM -22.5710 -46.9930 177° South 403 464 20,400 -2,040 Descending FlightAware
05:33AM -22.6310 -46.9890 176° South 398 458 19,300 -1,980 Descending FlightAware
05:34AM -22.6970 -46.9840 176° South 388 447 18,200 -1,920 Descending FlightAware
05:34AM -22.7610 -46.9800 177° South 380 437 17,000 -1,920 Descending FlightAware
05:35AM -22.8230 -46.9760 177° South 372 428 15,900 -1,800 Descending FlightAware
05:35AM -22.8770 -46.9690 173° South 370 426 15,000 -2,220 Descending FlightAware
05:36AM -22.9380 -46.9470 162° South 381 438 13,400 -2,280 Descending FlightAware
05:37AM -23.0000 -46.9200 158° South 371 427 12,200 -1,800 Descending FlightAware
05:37AM -23.0500 -46.8990 159° South 365 420 11,300 -1,260 Descending FlightAware
05:38AM -23.1050 -46.8760 159° South 341 392 10,800 -1,140 Descending FlightAware
05:38AM -23.1460 -46.8590 159° South 333 383 10,100 -1,260 Descending FlightAware
05:38AM -23.1740 -46.8470 158° South 322 371 9,800 -1,140 Descending FlightAware
05:39AM -23.2080 -46.8320 158° South 317 365 9,300 -1,260 Descending FlightAware
05:39AM -23.2330 -46.8220 160° South 313 360 8,900 -1,260 Descending FlightAware
05:40AM -23.2600 -46.8100 158° South 299 344 8,500 -900 Descending FlightAware
05:40AM -23.2850 -46.7990 158° South 284 327 8,300 -1,260 Descending FlightAware
05:40AM -23.3120 -46.7820 150° Southeast 285 328 7,600 -1,140 Descending FlightAware
05:41AM -23.3340 -46.7670 148° Southeast 271 312 7,500 -540 Descending FlightAware
05:41AM -23.3510 -46.7560 149° Southeast 251 289 7,300 -1,200 Descending FlightAware
05:41AM -23.3750 -46.7400 149° Southeast 239 275 6,700 -1,680 Descending FlightAware
05:42AM -23.3960 -46.7260 149° Southeast 234 269 6,000 -1,380 Descending FlightAware
05:42AM -23.4160 -46.7140 151° Southeast 213 245 5,700 -900 Descending FlightAware
05:42AM -23.4310 -46.7040 149° Southeast 197 227 5,400 -900 Descending FlightAware
05:43AM -23.4470 -46.6910 143° Southeast 189 217 5,100 -780 Descending FlightAware
05:43AM -23.4590 -46.6790 137° Southeast 180 207 4,900 -720 Descending FlightAware
05:43AM -23.4690 -46.6690 137° Southeast 175 201 4,700 -720 Descending FlightAware
05:44AM -23.4770 -46.6550 122° Southeast 175 201 4,500 -480 Descending FlightAware
05:44AM -23.4790 -46.6470 105° East 178 205 4,500 360 Level FlightAware
05:44AM -23.4790 -46.6400 90° East 182 209 4,600 300 Climbing FlightAware
05:44AM -23.4770 -46.6290 79° East 185 213 4,600 -240 Level FlightAware
05:44AM -23.4730 -46.6120 76° East 185 213 4,500 -480 Descending FlightAware
05:45AM -23.4680 -46.5940 73° East 171 197 4,300 -840 Descending FlightAware
05:45AM -23.4620 -46.5750 71° East 167 192 3,900 -960 Descending FlightAware
05:45AM -23.4580 -46.5580 76° East 153 176 3,600 -960 Descending FlightAware
05:46AM -23.4560 -46.5500 75° East 149 171 3,400 -780 Descending FlightAware
05:46AM -23.4520 -46.5350 74° East 142 163 3,200 -660 Descending FlightAware
05:46AM -23.4490 -46.5240 73° East 138 159 3,000 -720 Descending FlightAware
05:47AM -23.4450 -46.5090 74° East 137 158 2,700 -780 Descending FlightAware
05:47AM -23.4400 -46.4930 71° East 138 159 2,400 -900 Descending FlightAware
05:47AM -23.4370 -46.4800 76° East 135 155 -7,620 Descending FlightAware
05:48AM -23.4330 -46.4650 74° East 70 81  Level FlightAware
05:51AM -23.4321 -46.4695 283° West  Level Estimated
05:52AM -23.4321 -46.4695 350° North  Level Estimated
05:53AM -23.4321 -46.4695 350° North  Level Estimated
05:54AM -23.4321 -46.4695 350° North  Level Estimated
05:55AM -23.4321 -46.4695 350° North  Level Estimated
05:56AM -23.4321 -46.4695 350° North  Level Estimated
05:57AM -23.4321 -46.4695 350° North  Level Estimated
05:58AM -23.4321 -46.4695 350° North  Level Estimated
05:59AM -23.4321 -46.4695 350° North  Level Estimated
06:00AM -23.4321 -46.4695 350° North  Level Estimated
06:01AM -23.4321 -46.4695 350° North  Level Estimated
06:02AM -23.4321 -46.4695 350° North  Level Estimated
06:03AM -23.4321 -46.4695 350° North  Level Estimated
06:04AM -23.4321 -46.4695 350° North  Level Estimated
06:05AM -23.4321 -46.4695 350° North  Level Estimated
06:06AM -23.4321 -46.4695 350° North  Level Estimated
06:07AM -23.4321 -46.4695 350° North  Level Estimated
06:08AM -23.4321 -46.4695 350° North  Level Estimated
06:09AM -23.4321 -46.4695 350° North  Level Estimated
06:10AM -23.4321 -46.4695 350° North  Level Estimated
06:11AM -23.4321 -46.4695 350° North  Level Estimated
06:12AM -23.4321 -46.4695 350° North  Level Estimated
06:13AM -23.4321 -46.4695 350° North  Level Estimated
06:14AM -23.4321 -46.4695 350° North  Level Estimated